createdAt,value
2017-11-26T00:00:24.687Z,968.09
2017-11-26T00:01:34.693Z,968.03
2017-11-26T00:02:44.435Z,968.03
2017-11-26T00:03:54.448Z,968.06
2017-11-26T00:05:04.466Z,968.1
2017-11-26T00:06:14.203Z,968.05
2017-11-26T00:07:24.207Z,968.07
2017-11-26T00:08:34.210Z,968.1
2017-11-26T00:09:44.224Z,968.14
2017-11-26T00:10:54.281Z,968.12
2017-11-26T00:12:04.281Z,968.06
2017-11-26T00:13:14.294Z,968.07
2017-11-26T00:14:24.300Z,968.04
2017-11-26T00:15:34.310Z,968.04
2017-11-26T00:16:44.318Z,968.02
2017-11-26T00:17:54.323Z,968.05
2017-11-26T00:19:04.361Z,968.05
2017-11-26T00:20:14.105Z,968.05
2017-11-26T00:21:24.239Z,968.01
2017-11-26T00:22:34.253Z,968
2017-11-26T00:23:44.256Z,967.98
2017-11-26T00:24:54.300Z,968.01
2017-11-26T00:26:04.304Z,967.97
2017-11-26T00:27:14.353Z,967.96
2017-11-26T00:28:24.374Z,968.01
2017-11-26T00:29:34.379Z,968.02
2017-11-26T00:30:44.385Z,968.04
2017-11-26T00:31:54.395Z,968.02
2017-11-26T00:33:04.138Z,968.04
2017-11-26T00:34:13.873Z,968.02
2017-11-26T00:35:23.612Z,968.03
2017-11-26T00:36:33.621Z,968.02
2017-11-26T00:37:43.628Z,968.02
2017-11-26T00:38:53.640Z,968.01
2017-11-26T00:40:03.643Z,968.05
2017-11-26T00:41:13.387Z,968.08
2017-11-26T00:42:23.117Z,968.09
2017-11-26T00:43:33.150Z,968.08
2017-11-26T00:44:42.637Z,968.09
2017-11-26T00:45:52.683Z,968.07
2017-11-26T00:47:02.717Z,968.03
2017-11-26T00:48:12.723Z,968.01
2017-11-26T00:49:22.459Z,968.03
2017-11-26T00:50:31.923Z,968.01
2017-11-26T00:51:41.659Z,967.97
2017-11-26T00:52:51.669Z,967.96
2017-11-26T00:54:01.402Z,967.97
2017-11-26T00:55:11.135Z,967.99
2017-11-26T00:56:21.192Z,967.95
2017-11-26T00:57:30.924Z,967.94
2017-11-26T00:58:40.938Z,967.96
2017-11-26T00:59:50.959Z,967.88
2017-11-26T01:01:00.701Z,967.86
2017-11-26T01:02:12.705Z,967.85
2017-11-26T01:03:22.449Z,967.88
2017-11-26T01:04:32.454Z,967.85
2017-11-26T01:05:42.471Z,967.84
2017-11-26T01:06:52.502Z,967.82
2017-11-26T01:08:02.504Z,967.83
2017-11-26T01:09:12.557Z,967.75
2017-11-26T01:10:22.577Z,967.8
2017-11-26T01:11:32.601Z,967.81
2017-11-26T01:12:42.641Z,967.8
2017-11-26T01:13:52.672Z,967.78
2017-11-26T01:15:02.411Z,967.82
2017-11-26T01:16:12.427Z,967.78
2017-11-26T01:17:22.161Z,967.79
2017-11-26T01:18:32.171Z,967.84
2017-11-26T01:19:42.183Z,967.74
2017-11-26T01:20:52.185Z,967.79
2017-11-26T01:22:01.918Z,967.79
2017-11-26T01:23:11.657Z,967.77
2017-11-26T01:24:21.123Z,967.8
2017-11-26T01:25:31.143Z,967.8
2017-11-26T01:26:41.151Z,967.79
2017-11-26T01:27:51.155Z,967.74
2017-11-26T01:29:00.909Z,967.76
2017-11-26T01:30:10.926Z,967.78
2017-11-26T01:31:20.932Z,967.76
2017-11-26T01:32:30.667Z,967.69
2017-11-26T01:33:40.406Z,967.72
2017-11-26T01:34:50.428Z,967.74
2017-11-26T01:36:00.439Z,967.73
2017-11-26T01:37:09.903Z,967.74
2017-11-26T01:38:19.909Z,967.72
2017-11-26T01:39:29.660Z,967.72
2017-11-26T01:40:39.684Z,967.69
2017-11-26T01:41:49.421Z,967.67
2017-11-26T01:42:59.426Z,967.64
2017-11-26T01:44:09.428Z,967.65
2017-11-26T01:45:19.166Z,967.66
2017-11-26T01:46:29.180Z,967.69
2017-11-26T01:47:38.916Z,967.69
2017-11-26T01:48:48.928Z,967.72
2017-11-26T01:49:58.947Z,967.69
2017-11-26T01:51:08.954Z,967.72
2017-11-26T01:52:18.957Z,967.69
2017-11-26T01:53:29.015Z,967.71
2017-11-26T01:54:39.037Z,967.66
2017-11-26T01:55:49.061Z,967.67
2017-11-26T01:56:58.811Z,967.65
2017-11-26T01:58:08.548Z,967.65
2017-11-26T01:59:18.602Z,967.66
2017-11-26T02:00:28.619Z,967.67
2017-11-26T02:01:38.359Z,967.66
2017-11-26T02:02:48.381Z,967.63
2017-11-26T02:03:58.400Z,967.63
2017-11-26T02:05:08.150Z,967.63
2017-11-26T02:06:18.161Z,967.63
2017-11-26T02:07:28.167Z,967.63
2017-11-26T02:08:38.169Z,967.58
2017-11-26T02:09:48.185Z,967.54
2017-11-26T02:10:58.235Z,967.59
2017-11-26T02:12:08.242Z,967.54
2017-11-26T02:13:18.248Z,967.55
2017-11-26T02:14:28.274Z,967.58
2017-11-26T02:15:38.011Z,967.5
2017-11-26T02:16:48.032Z,967.55
2017-11-26T02:17:57.773Z,967.51
2017-11-26T02:19:07.514Z,967.53
2017-11-26T02:20:17.528Z,967.54
2017-11-26T02:21:27.547Z,967.48
2017-11-26T02:22:37.556Z,967.52
2017-11-26T02:23:47.578Z,967.49
2017-11-26T02:24:57.316Z,967.52
2017-11-26T02:26:07.341Z,967.49
2017-11-26T02:27:17.354Z,967.46
2017-11-26T02:28:27.382Z,967.47
2017-11-26T02:29:37.397Z,967.51
2017-11-26T02:30:47.408Z,967.49
2017-11-26T02:31:57.429Z,967.53
2017-11-26T02:33:07.453Z,967.47
2017-11-26T02:34:17.468Z,967.47
2017-11-26T02:35:27.529Z,967.5
2017-11-26T02:36:37.548Z,967.47
2017-11-26T02:37:47.570Z,967.49
2017-11-26T02:38:57.598Z,967.48
2017-11-26T02:40:07.650Z,967.5
2017-11-26T02:41:17.962Z,967.44
2017-11-26T02:42:27.990Z,967.45
2017-11-26T02:43:38.047Z,967.44
2017-11-26T02:44:48.086Z,967.43
2017-11-26T02:45:58.117Z,967.45
2017-11-26T02:47:07.870Z,967.43
2017-11-26T02:48:17.626Z,967.38
2017-11-26T02:49:27.652Z,967.4
2017-11-26T02:50:37.662Z,967.36
2017-11-26T02:51:47.402Z,967.33
2017-11-26T02:52:57.459Z,967.33
2017-11-26T02:54:07.480Z,967.32
2017-11-26T02:55:17.497Z,967.32
2017-11-26T02:56:27.520Z,967.31
2017-11-26T02:57:37.532Z,967.3
2017-11-26T02:58:47.559Z,967.26
2017-11-26T02:59:57.586Z,967.25
2017-11-26T03:01:07.611Z,967.27
2017-11-26T03:02:17.640Z,967.21
2017-11-26T03:03:27.647Z,967.18
2017-11-26T03:04:37.454Z,967.19
2017-11-26T03:05:47.196Z,967.19
2017-11-26T03:06:56.935Z,967.21
2017-11-26T03:08:06.942Z,967.22
2017-11-26T03:09:16.949Z,967.2
2017-11-26T03:10:30.707Z,967.17
2017-11-26T03:11:40.712Z,967.15
2017-11-26T03:12:50.718Z,967.17
2017-11-26T03:14:00.728Z,967.13
2017-11-26T03:15:10.474Z,967.12
2017-11-26T03:16:20.789Z,967.09
2017-11-26T03:17:30.823Z,967.08
2017-11-26T03:18:40.843Z,967.08
2017-11-26T03:19:50.580Z,967.06
2017-11-26T03:21:00.316Z,967.08
2017-11-26T03:22:10.330Z,967.09
2017-11-26T03:23:20.385Z,967.06
2017-11-26T03:24:30.400Z,967.06
2017-11-26T03:25:40.407Z,967.07
2017-11-26T03:26:50.426Z,967.04
2017-11-26T03:28:02.437Z,967.05
2017-11-26T03:29:12.173Z,967.05
2017-11-26T03:30:22.184Z,967.07
2017-11-26T03:31:32.213Z,967.01
2017-11-26T03:32:41.958Z,967.06
2017-11-26T03:33:52.027Z,967.04
2017-11-26T03:35:02.036Z,967.05
2017-11-26T03:36:12.045Z,967.07
2017-11-26T03:37:21.781Z,967.05
2017-11-26T03:38:31.785Z,967.04
2017-11-26T03:39:41.806Z,967.05
2017-11-26T03:40:51.830Z,967.05
2017-11-26T03:42:01.851Z,967.07
2017-11-26T03:43:11.859Z,967.04
2017-11-26T03:44:21.863Z,967.01
2017-11-26T03:45:31.872Z,967.03
2017-11-26T03:46:41.876Z,966.99
2017-11-26T03:47:51.627Z,966.99
2017-11-26T03:49:01.634Z,966.98
2017-11-26T03:50:11.645Z,966.98
2017-11-26T03:51:21.654Z,966.92
2017-11-26T03:52:31.404Z,966.91
2017-11-26T03:53:41.424Z,966.94
2017-11-26T03:54:51.426Z,966.84
2017-11-26T03:56:01.438Z,966.84
2017-11-26T03:57:11.455Z,966.84
2017-11-26T03:58:21.194Z,966.8
2017-11-26T03:59:31.203Z,966.79
2017-11-26T04:03:21.333Z,966.74
2017-11-26T04:04:31.350Z,966.7
2017-11-26T04:05:41.355Z,966.73
2017-11-26T04:06:51.371Z,966.73
2017-11-26T04:08:01.379Z,966.7
2017-11-26T04:09:11.387Z,966.69
2017-11-26T04:10:21.389Z,966.67
2017-11-26T04:11:31.397Z,966.66
2017-11-26T04:12:41.146Z,966.65
2017-11-26T04:13:51.187Z,966.66
2017-11-26T04:15:01.193Z,966.62
2017-11-26T04:16:11.199Z,966.63
2017-11-26T04:17:21.229Z,966.63
2017-11-26T04:18:31.260Z,966.68
2017-11-26T04:19:41.270Z,966.65
2017-11-26T04:20:51.275Z,966.67
2017-11-26T04:22:01.303Z,966.65
2017-11-26T04:23:11.336Z,966.69
2017-11-26T04:24:21.344Z,966.7
2017-11-26T04:25:31.372Z,966.71
2017-11-26T04:26:41.389Z,966.71
2017-11-26T04:27:51.418Z,966.73
2017-11-26T04:29:01.438Z,966.71
2017-11-26T04:30:11.450Z,966.71
2017-11-26T04:31:21.454Z,966.69
2017-11-26T04:32:31.470Z,966.69
2017-11-26T04:33:41.480Z,966.68
2017-11-26T04:34:51.215Z,966.66
2017-11-26T04:36:01.230Z,966.66
2017-11-26T04:37:11.231Z,966.63
2017-11-26T04:38:21.016Z,966.65
2017-11-26T04:39:31.049Z,966.69
2017-11-26T04:40:40.792Z,966.69
2017-11-26T04:41:50.806Z,966.7
2017-11-26T04:43:00.541Z,966.67
2017-11-26T04:44:10.282Z,966.7
2017-11-26T04:45:20.297Z,966.73
2017-11-26T04:46:30.308Z,966.72
2017-11-26T04:47:40.341Z,966.69
2017-11-26T04:48:50.361Z,966.69
2017-11-26T04:50:00.387Z,966.69
2017-11-26T04:51:10.156Z,966.69
2017-11-26T04:52:20.159Z,966.64
2017-11-26T04:53:30.160Z,966.64
2017-11-26T04:54:40.188Z,966.64
2017-11-26T04:55:50.193Z,966.66
2017-11-26T04:57:00.209Z,966.63
2017-11-26T04:58:10.228Z,966.62
2017-11-26T04:59:20.230Z,966.65
2017-11-26T05:00:30.251Z,966.64
2017-11-26T05:01:40.264Z,966.65
2017-11-26T05:02:50.289Z,966.63
2017-11-26T05:04:00.297Z,966.65
2017-11-26T05:05:10.314Z,966.62
2017-11-26T05:06:19.780Z,966.62
2017-11-26T05:07:29.789Z,966.61
2017-11-26T05:08:39.837Z,966.62
2017-11-26T05:09:49.854Z,966.66
2017-11-26T05:10:59.860Z,966.65
2017-11-26T05:12:09.868Z,966.67
2017-11-26T05:13:19.873Z,966.67
2017-11-26T05:14:29.895Z,966.71
2017-11-26T05:15:39.905Z,966.7
2017-11-26T05:16:49.913Z,966.68
2017-11-26T05:17:59.921Z,966.66
2017-11-26T05:19:09.933Z,966.65
2017-11-26T05:20:19.957Z,966.7
2017-11-26T05:21:29.970Z,966.74
2017-11-26T05:22:39.979Z,966.72
2017-11-26T05:23:49.715Z,966.7
2017-11-26T05:24:59.735Z,966.68
2017-11-26T05:26:09.471Z,966.69
2017-11-26T05:27:19.484Z,966.69
2017-11-26T05:28:29.222Z,966.68
2017-11-26T05:29:39.239Z,966.67
2017-11-26T05:30:49.301Z,966.65
2017-11-26T05:31:59.308Z,966.64
2017-11-26T05:33:09.326Z,966.69
2017-11-26T05:34:19.341Z,966.7
2017-11-26T05:35:29.361Z,966.68
2017-11-26T05:36:39.384Z,966.77
2017-11-26T05:37:49.120Z,966.72
2017-11-26T05:38:59.135Z,966.7
2017-11-26T05:40:09.142Z,966.69
2017-11-26T05:41:18.896Z,966.66
2017-11-26T05:42:28.909Z,966.65
2017-11-26T05:43:38.926Z,966.61
2017-11-26T05:44:48.932Z,966.64
2017-11-26T05:45:58.955Z,966.65
2017-11-26T05:47:08.705Z,966.62
2017-11-26T05:48:18.712Z,966.64
2017-11-26T05:49:28.719Z,966.64
2017-11-26T05:50:38.733Z,966.65
2017-11-26T05:51:48.741Z,966.65
2017-11-26T05:52:58.482Z,966.66
2017-11-26T05:54:08.505Z,966.65
2017-11-26T05:55:18.258Z,966.66
2017-11-26T05:56:28.270Z,966.65
2017-11-26T05:57:38.291Z,966.67
2017-11-26T05:58:48.308Z,966.66
2017-11-26T05:59:58.315Z,966.66
2017-11-26T06:01:08.324Z,966.63
2017-11-26T06:02:18.335Z,966.66
2017-11-26T06:03:28.359Z,966.65
2017-11-26T06:04:38.368Z,966.65
2017-11-26T06:05:48.108Z,966.68
2017-11-26T06:06:58.136Z,966.71
2017-11-26T06:08:08.154Z,966.69
2017-11-26T06:09:18.213Z,966.7
2017-11-26T06:10:28.226Z,966.68
2017-11-26T06:11:38.236Z,966.67
2017-11-26T06:12:48.262Z,966.69
2017-11-26T06:13:58.303Z,966.77
2017-11-26T06:15:08.314Z,966.74
2017-11-26T06:16:18.322Z,966.67
2017-11-26T06:17:28.335Z,966.65
2017-11-26T06:18:38.344Z,966.66
2017-11-26T06:19:48.373Z,966.67
2017-11-26T06:20:58.109Z,966.67
2017-11-26T06:22:08.128Z,966.69
2017-11-26T06:23:18.149Z,966.67
2017-11-26T06:24:28.210Z,966.63
2017-11-26T06:25:38.238Z,966.62
2017-11-26T06:26:47.979Z,966.63
2017-11-26T06:27:57.988Z,966.62
2017-11-26T06:29:07.993Z,966.62
2017-11-26T06:30:17.999Z,966.63
2017-11-26T06:31:27.736Z,966.62
2017-11-26T06:32:37.513Z,966.65
2017-11-26T06:33:47.552Z,966.68
2017-11-26T06:34:57.286Z,966.71
2017-11-26T06:36:07.306Z,966.69
2017-11-26T06:37:17.325Z,966.67
2017-11-26T06:38:27.341Z,966.68
2017-11-26T06:39:37.352Z,966.71
2017-11-26T06:40:47.460Z,966.72
2017-11-26T06:41:57.478Z,966.7
2017-11-26T06:43:07.222Z,966.74
2017-11-26T06:44:17.229Z,966.76
2017-11-26T06:45:27.250Z,966.77
2017-11-26T06:46:36.987Z,966.8
2017-11-26T06:47:46.994Z,966.79
2017-11-26T06:48:57.009Z,966.8
2017-11-26T06:50:07.053Z,966.78
2017-11-26T06:51:17.074Z,966.8
2017-11-26T06:52:27.091Z,966.81
2017-11-26T06:53:37.101Z,966.8
2017-11-26T06:54:47.116Z,966.82
2017-11-26T06:55:57.123Z,966.81
2017-11-26T06:57:06.589Z,966.8
2017-11-26T06:58:16.325Z,966.78
2017-11-26T06:59:26.361Z,966.77
2017-11-26T07:00:36.103Z,966.81
2017-11-26T07:01:45.852Z,966.81
2017-11-26T07:02:55.861Z,966.84
2017-11-26T07:04:05.608Z,966.82
2017-11-26T07:05:15.618Z,966.86
2017-11-26T07:06:25.642Z,966.86
2017-11-26T07:07:35.382Z,966.91
2017-11-26T07:08:45.391Z,966.9
2017-11-26T07:09:55.416Z,966.91
2017-11-26T07:11:05.159Z,966.85
2017-11-26T07:12:15.168Z,966.95
2017-11-26T07:13:25.194Z,966.94
2017-11-26T07:14:35.240Z,966.92
2017-11-26T07:15:45.259Z,966.96
2017-11-26T07:16:55.290Z,966.92
2017-11-26T07:18:05.348Z,966.92
2017-11-26T07:19:15.094Z,966.93
2017-11-26T07:20:25.119Z,966.95
2017-11-26T07:21:35.141Z,966.93
2017-11-26T07:22:45.150Z,966.91
2017-11-26T07:23:54.883Z,966.91
2017-11-26T07:25:04.629Z,966.9
2017-11-26T07:26:14.642Z,966.88
2017-11-26T07:27:24.650Z,966.85
2017-11-26T07:28:34.397Z,966.86
2017-11-26T07:29:44.438Z,966.87
2017-11-26T07:30:54.469Z,966.84
2017-11-26T07:32:04.206Z,966.79
2017-11-26T07:33:14.226Z,966.83
2017-11-26T07:34:24.281Z,966.81
2017-11-26T07:35:34.027Z,966.79
2017-11-26T07:36:43.764Z,966.83
2017-11-26T07:37:53.780Z,966.8
2017-11-26T07:39:03.790Z,966.74
2017-11-26T07:40:13.807Z,966.78
2017-11-26T07:41:23.544Z,966.78
2017-11-26T07:42:33.551Z,966.79
2017-11-26T07:43:43.592Z,966.78
2017-11-26T07:44:53.331Z,966.81
2017-11-26T07:46:03.340Z,966.77
2017-11-26T07:47:13.363Z,966.82
2017-11-26T07:48:23.381Z,966.8
2017-11-26T07:49:33.386Z,966.81
2017-11-26T07:50:43.409Z,966.81
2017-11-26T07:51:53.419Z,966.75
2017-11-26T07:53:03.426Z,966.75
2017-11-26T07:54:13.175Z,966.78
2017-11-26T07:55:23.208Z,966.75
2017-11-26T07:56:33.217Z,966.76
2017-11-26T07:57:43.241Z,966.78
2017-11-26T07:58:52.987Z,966.78
2017-11-26T08:00:02.733Z,966.76
2017-11-26T08:01:12.774Z,966.78
2017-11-26T08:02:22.787Z,966.78
2017-11-26T08:03:32.803Z,966.75
2017-11-26T08:04:42.828Z,966.76
2017-11-26T08:05:52.855Z,966.77
2017-11-26T08:07:02.596Z,966.76
2017-11-26T08:08:12.335Z,966.73
2017-11-26T08:09:22.350Z,966.72
2017-11-26T08:10:32.362Z,966.7
2017-11-26T08:11:42.371Z,966.74
2017-11-26T08:12:52.376Z,966.7
2017-11-26T08:14:02.112Z,966.75
2017-11-26T08:15:12.138Z,966.76
2017-11-26T08:16:22.155Z,966.79
2017-11-26T08:17:32.165Z,966.72
2017-11-26T08:18:42.180Z,966.77
2017-11-26T08:19:51.915Z,966.75
2017-11-26T08:21:01.936Z,966.79
2017-11-26T08:22:11.947Z,966.76
2017-11-26T08:23:21.683Z,966.75
2017-11-26T08:24:31.695Z,966.78
2017-11-26T08:25:41.437Z,966.7
2017-11-26T08:26:51.177Z,966.75
2017-11-26T08:28:01.193Z,966.75
2017-11-26T08:29:11.207Z,966.76
2017-11-26T08:30:20.940Z,966.72
2017-11-26T08:31:30.951Z,966.79
2017-11-26T08:32:40.964Z,966.8
2017-11-26T08:33:50.986Z,966.84
2017-11-26T08:35:00.995Z,966.78
2017-11-26T08:36:10.735Z,966.79
2017-11-26T08:37:20.760Z,966.81
2017-11-26T08:38:30.228Z,966.82
2017-11-26T08:39:40.229Z,966.8
2017-11-26T08:40:49.981Z,966.79
2017-11-26T08:42:00.012Z,966.83
2017-11-26T08:43:10.025Z,966.77
2017-11-26T08:44:20.058Z,966.74
2017-11-26T08:45:29.792Z,966.82
2017-11-26T08:46:39.800Z,966.78
2017-11-26T08:47:49.826Z,966.73
2017-11-26T08:48:59.842Z,966.75
2017-11-26T08:50:09.593Z,966.73
2017-11-26T08:51:19.389Z,966.77
2017-11-26T08:52:29.405Z,966.74
2017-11-26T08:53:39.418Z,966.78
2017-11-26T08:54:49.163Z,966.77
2017-11-26T08:55:59.181Z,966.8
2017-11-26T08:57:09.196Z,966.8
2017-11-26T08:58:19.202Z,966.79
2017-11-26T08:59:28.941Z,966.77
2017-11-26T09:00:38.968Z,966.8
2017-11-26T09:01:49.005Z,966.81
2017-11-26T09:02:59.017Z,966.83
2017-11-26T09:04:09.051Z,966.83
2017-11-26T09:05:19.069Z,966.8
2017-11-26T09:06:28.809Z,966.79
2017-11-26T09:07:38.277Z,966.79
2017-11-26T09:08:48.017Z,966.83
2017-11-26T09:09:58.022Z,966.82
2017-11-26T09:11:08.032Z,966.82
2017-11-26T09:12:18.347Z,966.83
2017-11-26T09:13:28.101Z,966.85
2017-11-26T09:14:38.158Z,966.79
2017-11-26T09:15:48.170Z,966.82
2017-11-26T09:16:57.646Z,966.86
2017-11-26T09:18:07.183Z,966.85
2017-11-26T09:19:17.224Z,966.87
2017-11-26T09:20:27.267Z,966.85
2017-11-26T09:21:37.276Z,966.83
2017-11-26T09:22:47.025Z,966.83
2017-11-26T09:23:57.050Z,966.82
2017-11-26T09:25:06.520Z,966.82
2017-11-26T09:26:15.986Z,966.84
2017-11-26T09:27:25.185Z,966.86
2017-11-26T09:28:35.201Z,966.84
2017-11-26T09:29:45.240Z,966.85
2017-11-26T09:30:55.255Z,966.78
2017-11-26T09:32:05.282Z,966.79
2017-11-26T09:33:15.290Z,966.78
2017-11-26T09:34:25.306Z,966.78
2017-11-26T09:35:34.777Z,966.83
2017-11-26T09:36:44.794Z,966.79
2017-11-26T09:37:54.529Z,966.78
2017-11-26T09:39:04.272Z,966.79
2017-11-26T09:40:14.300Z,966.82
2017-11-26T09:41:24.309Z,966.82
2017-11-26T09:42:34.355Z,966.84
2017-11-26T09:43:44.393Z,966.84
2017-11-26T09:44:54.399Z,966.79
2017-11-26T09:46:04.415Z,966.81
2017-11-26T09:47:14.178Z,966.77
2017-11-26T09:48:23.920Z,966.79
2017-11-26T09:49:33.934Z,966.76
2017-11-26T09:50:43.945Z,966.76
2017-11-26T09:51:53.679Z,966.74
2017-11-26T09:53:03.150Z,966.72
2017-11-26T09:54:13.172Z,966.69
2017-11-26T09:55:23.209Z,966.72
2017-11-26T09:56:33.241Z,966.72
2017-11-26T09:57:43.004Z,966.71
2017-11-26T09:58:52.745Z,966.72
2017-11-26T10:00:02.770Z,966.73
2017-11-26T10:01:12.782Z,966.7
2017-11-26T10:02:22.807Z,966.7
2017-11-26T10:03:32.829Z,966.71
2017-11-26T10:04:42.834Z,966.7
2017-11-26T10:05:52.576Z,966.74
2017-11-26T10:07:02.318Z,966.7
2017-11-26T10:08:12.335Z,966.69
2017-11-26T10:09:22.352Z,966.74
2017-11-26T10:10:32.366Z,966.71
2017-11-26T10:11:41.836Z,966.67
2017-11-26T10:12:51.853Z,966.7
2017-11-26T10:14:01.859Z,966.71
2017-11-26T10:15:11.877Z,966.69
2017-11-26T10:16:21.900Z,966.68
2017-11-26T10:17:31.965Z,966.66
2017-11-26T10:18:41.978Z,966.67
2017-11-26T10:19:51.987Z,966.66
2017-11-26T10:21:01.726Z,966.68
2017-11-26T10:22:11.736Z,966.72
2017-11-26T10:23:21.743Z,966.7
2017-11-26T10:24:31.768Z,966.71
2017-11-26T10:25:41.253Z,966.69
2017-11-26T10:26:51.264Z,966.7
2017-11-26T10:28:01.275Z,966.71
2017-11-26T10:29:11.033Z,966.72
2017-11-26T10:30:21.077Z,966.73
2017-11-26T10:31:30.811Z,966.67
2017-11-26T10:32:40.572Z,966.7
2017-11-26T10:33:50.586Z,966.65
2017-11-26T10:35:00.592Z,966.62
2017-11-26T10:36:10.605Z,966.64
2017-11-26T10:37:20.619Z,966.61
2017-11-26T10:38:30.630Z,966.61
2017-11-26T10:39:40.102Z,966.61
2017-11-26T10:40:50.109Z,966.58
2017-11-26T10:42:00.120Z,966.6
2017-11-26T10:43:09.861Z,966.59
2017-11-26T10:44:19.891Z,966.58
2017-11-26T10:45:29.912Z,966.6
2017-11-26T10:46:39.651Z,966.56
2017-11-26T10:47:49.397Z,966.57
2017-11-26T10:48:58.867Z,966.6
2017-11-26T10:50:08.872Z,966.61
2017-11-26T10:51:18.897Z,966.62
2017-11-26T10:52:28.979Z,966.59
2017-11-26T10:53:38.714Z,966.6
2017-11-26T10:54:48.489Z,966.61
2017-11-26T10:55:58.232Z,966.58
2017-11-26T10:57:08.240Z,966.6
2017-11-26T10:58:18.258Z,966.59
2017-11-26T10:59:28.276Z,966.62
2017-11-26T11:00:37.777Z,966.62
2017-11-26T11:01:47.792Z,966.61
2017-11-26T11:02:57.840Z,966.58
2017-11-26T11:04:07.586Z,966.57
2017-11-26T11:05:17.331Z,966.6
2017-11-26T11:06:27.080Z,966.57
2017-11-26T11:07:36.823Z,966.56
2017-11-26T11:08:46.576Z,966.54
2017-11-26T11:09:56.591Z,966.59
2017-11-26T11:11:06.342Z,966.58
2017-11-26T11:12:16.082Z,966.58
2017-11-26T11:13:25.821Z,966.55
2017-11-26T11:14:35.568Z,966.54
2017-11-26T11:15:45.306Z,966.57
2017-11-26T11:16:55.326Z,966.53
2017-11-26T11:18:05.369Z,966.53
2017-11-26T11:19:15.409Z,966.52
2017-11-26T11:20:25.469Z,966.56
2017-11-26T11:21:35.480Z,966.55
2017-11-26T11:22:45.218Z,966.56
2017-11-26T11:23:55.239Z,966.57
2017-11-26T11:25:05.257Z,966.62
2017-11-26T11:26:15.000Z,966.6
2017-11-26T11:27:24.739Z,966.61
2017-11-26T11:28:34.748Z,966.56
2017-11-26T11:29:44.764Z,966.63
2017-11-26T11:30:54.779Z,966.6
2017-11-26T11:32:04.790Z,966.6
2017-11-26T11:33:14.807Z,966.55
2017-11-26T11:34:24.826Z,966.59
2017-11-26T11:35:34.842Z,966.58
2017-11-26T11:36:44.857Z,966.55
2017-11-26T11:37:54.876Z,966.54
2017-11-26T11:39:04.615Z,966.53
2017-11-26T11:40:14.630Z,966.53
2017-11-26T11:41:24.658Z,966.52
2017-11-26T11:42:34.400Z,966.48
2017-11-26T11:43:44.136Z,966.46
2017-11-26T11:44:54.181Z,966.5
2017-11-26T11:46:04.198Z,966.46
2017-11-26T11:47:13.947Z,966.5
2017-11-26T11:48:23.688Z,966.47
2017-11-26T11:49:33.706Z,966.45
2017-11-26T11:50:43.450Z,966.42
2017-11-26T11:51:53.462Z,966.45
2017-11-26T11:53:03.482Z,966.43
2017-11-26T11:54:13.499Z,966.42
2017-11-26T11:55:23.511Z,966.37
2017-11-26T11:56:33.528Z,966.4
2017-11-26T11:57:43.269Z,966.39
2017-11-26T11:58:52.747Z,966.36
2017-11-26T12:00:02.485Z,966.34
2017-11-26T12:01:12.523Z,966.32
2017-11-26T12:02:22.532Z,966.27
2017-11-26T12:03:32.546Z,966.29
2017-11-26T12:04:42.560Z,966.29
2017-11-26T12:05:52.583Z,966.32
2017-11-26T12:07:04.331Z,966.31
2017-11-26T12:08:14.084Z,966.32
2017-11-26T12:09:23.834Z,966.26
2017-11-26T12:10:33.847Z,966.24
2017-11-26T12:11:43.886Z,966.25
2017-11-26T12:12:53.909Z,966.25
2017-11-26T12:14:03.918Z,966.2
2017-11-26T12:15:13.665Z,966.2
2017-11-26T12:16:23.681Z,966.23
2017-11-26T12:17:33.688Z,966.2
2017-11-26T12:18:43.430Z,966.18
2017-11-26T12:19:53.437Z,966.19
2017-11-26T12:21:03.468Z,966.16
2017-11-26T12:22:13.474Z,966.18
2017-11-26T12:23:23.243Z,966.19
2017-11-26T12:24:32.978Z,966.19
2017-11-26T12:25:42.729Z,966.18
2017-11-26T12:26:52.761Z,966.2
2017-11-26T12:28:02.769Z,966.2
2017-11-26T12:29:12.543Z,966.22
2017-11-26T12:30:22.299Z,966.18
2017-11-26T12:31:32.336Z,966.17
2017-11-26T12:32:42.360Z,966.23
2017-11-26T12:33:52.118Z,966.24
2017-11-26T12:35:01.870Z,966.23
2017-11-26T12:36:11.914Z,966.22
2017-11-26T12:37:21.652Z,966.21
2017-11-26T12:38:31.677Z,966.24
2017-11-26T12:39:41.688Z,966.22
2017-11-26T12:40:51.699Z,966.22
2017-11-26T12:42:05.737Z,966.21
2017-11-26T12:43:15.753Z,966.21
2017-11-26T12:44:25.495Z,966.21
2017-11-26T12:45:35.511Z,966.22
2017-11-26T12:46:45.581Z,966.2
2017-11-26T12:47:55.609Z,966.2
2017-11-26T12:49:05.084Z,966.2
2017-11-26T12:50:15.096Z,966.13
2017-11-26T12:51:25.106Z,966.12
2017-11-26T12:52:35.113Z,966.11
2017-11-26T12:53:45.120Z,966.16
2017-11-26T12:54:55.177Z,966.05
2017-11-26T12:56:05.200Z,966.18
2017-11-26T12:57:15.217Z,966.14
2017-11-26T12:58:25.246Z,966.16
2017-11-26T12:59:34.987Z,966.16
2017-11-26T13:00:44.732Z,966.17
2017-11-26T13:01:54.742Z,966.14
2017-11-26T13:03:04.213Z,966.18
2017-11-26T13:04:13.982Z,966.13
2017-11-26T13:05:23.742Z,966.2
2017-11-26T13:06:33.792Z,966.15
2017-11-26T13:07:43.850Z,966.16
2017-11-26T13:08:53.614Z,966.18
2017-11-26T13:10:03.660Z,966.13
2017-11-26T13:11:13.673Z,966.15
2017-11-26T13:12:23.701Z,966.17
2017-11-26T13:13:33.720Z,966.16
2017-11-26T13:14:43.746Z,966.17
2017-11-26T13:15:53.754Z,966.18
2017-11-26T13:17:03.764Z,966.15
2017-11-26T13:18:13.781Z,966.17
2017-11-26T13:19:23.249Z,966.18
2017-11-26T13:20:33.019Z,966.17
2017-11-26T13:21:43.039Z,966.23
2017-11-26T13:22:53.057Z,966.22
2017-11-26T13:24:03.077Z,966.24
2017-11-26T13:25:13.116Z,966.24
2017-11-26T13:26:23.173Z,966.24
2017-11-26T13:27:33.184Z,966.26
2017-11-26T13:28:43.192Z,966.23
2017-11-26T13:29:53.206Z,966.23
2017-11-26T13:31:02.945Z,966.21
2017-11-26T13:32:12.690Z,966.23
2017-11-26T13:33:22.701Z,966.22
2017-11-26T13:34:32.744Z,966.2
2017-11-26T13:35:42.759Z,966.23
2017-11-26T13:36:52.764Z,966.22
2017-11-26T13:38:02.812Z,966.21
2017-11-26T13:39:11.863Z,966.22
2017-11-26T13:40:22.081Z,966.21
2017-11-26T13:41:31.995Z,966.25
2017-11-26T13:42:41.604Z,966.27
2017-11-26T13:43:51.476Z,966.27
2017-11-26T13:45:01.520Z,966.22
2017-11-26T13:46:11.132Z,966.22
2017-11-26T13:47:21.023Z,966.25
2017-11-26T13:48:30.908Z,966.25
2017-11-26T13:49:40.933Z,966.28
2017-11-26T13:50:50.671Z,966.29
2017-11-26T13:52:00.416Z,966.27
2017-11-26T13:53:10.164Z,966.25
2017-11-26T13:54:20.181Z,966.25
2017-11-26T13:55:30.190Z,966.26
2017-11-26T13:56:40.227Z,966.27
2017-11-26T13:57:49.973Z,966.3
2017-11-26T13:58:59.995Z,966.29
2017-11-26T14:00:09.769Z,966.32
2017-11-26T14:01:19.778Z,966.3
2017-11-26T14:02:29.511Z,966.34
2017-11-26T14:03:39.546Z,966.3
2017-11-26T14:04:49.284Z,966.29
2017-11-26T14:05:59.309Z,966.27
2017-11-26T14:07:09.049Z,966.28
2017-11-26T14:08:19.073Z,966.31
2017-11-26T14:09:29.101Z,966.29
2017-11-26T14:10:39.126Z,966.31
2017-11-26T14:11:49.131Z,966.31
2017-11-26T14:12:58.870Z,966.32
2017-11-26T14:14:08.893Z,966.33
2017-11-26T14:15:18.634Z,966.32
2017-11-26T14:16:28.640Z,966.32
2017-11-26T14:17:38.381Z,966.34
2017-11-26T14:18:48.403Z,966.34
2017-11-26T14:19:58.441Z,966.33
2017-11-26T14:21:08.177Z,966.37
2017-11-26T14:22:18.188Z,966.37
2017-11-26T14:23:28.261Z,966.37
2017-11-26T14:24:38.273Z,966.34
2017-11-26T14:25:48.278Z,966.37
2017-11-26T14:26:58.296Z,966.33
2017-11-26T14:28:08.067Z,966.33
2017-11-26T14:29:17.810Z,966.3
2017-11-26T14:30:27.561Z,966.33
2017-11-26T14:31:37.583Z,966.33
2017-11-26T14:32:47.588Z,966.3
2017-11-26T14:33:57.605Z,966.32
2017-11-26T14:35:07.365Z,966.34
2017-11-26T14:36:17.385Z,966.34
2017-11-26T14:37:26.853Z,966.32
2017-11-26T14:38:36.925Z,966.37